Time;durP1;ratioP1;P1;durP2;ratioP2;P2;SDS_P1;SDS_P2;PMS_P1;PMS_P2;Temp;Humidity;BMP_temperature;BMP_pressure;BME280_temperature;BME280_humidity;BME280_pressure;Samples;Min_cycle;Max_cycle;Signal;HPM_P1;HPM_P2
2022/01/28 00:04:50;;;;;;;12.55;2.22;;;5.30;99.90;;;;;;5041992;28;20057;-80
2022/01/28 00:07:15;;;;;;;8.93;1.08;;;5.20;99.90;;;;;;5042976;28;20045;-80
2022/01/28 00:09:41;;;;;;;9.82;1.33;;;5.00;99.90;;;;;;5044310;28;20040;-80
2022/01/28 00:12:08;;;;;;;7.65;0.47;;;4.90;99.90;;;;;;5042698;28;20130;-80
2022/01/28 00:38:48;;;;;;;20.88;2.28;;;4.60;99.90;;;;;;5048021;28;20045;-80
2022/01/28 00:41:15;;;;;;;15.95;2.15;;;4.60;99.90;;;;;;5047015;28;20060;-80
2022/01/28 00:43:41;;;;;;;15.20;2.42;;;5.90;99.90;;;;;;5047584;28;20511;-80
2022/01/28 00:46:07;;;;;;;14.70;1.88;;;5.70;99.90;;;;;;5047791;28;20092;-80
2022/01/28 00:48:33;;;;;;;20.73;1.77;;;4.90;99.90;;;;;;5047946;28;20290;-80
2022/01/28 00:50:59;;;;;;;19.02;2.35;;;5.10;99.90;;;;;;5047823;28;20094;-80
2022/01/28 00:53:25;;;;;;;23.10;2.25;;;5.10;99.90;;;;;;5048380;28;20120;-80
2022/01/28 00:55:54;;;;;;;16.70;2.78;;;5.20;99.90;;;;;;5029988;28;20048;-80
2022/01/28 00:58:20;;;;;;;22.88;3.30;;;5.20;99.90;;;;;;5048126;28;20530;-80
2022/01/28 01:00:46;;;;;;;20.80;2.63;;;5.50;99.90;;;;;;5047459;28;20037;-81
2022/01/28 01:03:12;;;;;;;21.60;2.60;;;5.30;99.90;;;;;;5047466;28;20037;-80
2022/01/28 01:05:38;;;;;;;22.38;2.22;;;5.20;99.90;;;;;;5047272;28;20502;-81
2022/01/28 01:08:05;;;;;;;14.60;1.60;;;5.20;99.90;;;;;;5047621;28;20047;-81
2022/01/28 01:10:32;;;;;;;14.82;2.15;;;6.50;99.90;;;;;;5047843;28;20049;-80
2022/01/28 01:12:59;;;;;;;14.50;1.95;;;5.10;99.90;;;;;;5047080;28;20037;-80
2022/01/28 01:15:30;;;;;;;8.60;1.77;;;5.10;99.90;;;;;;5047849;28;20045;-80
2022/01/28 01:18:10;;;;;;;24.40;1.77;;;5.10;99.90;;;;;;5047103;28;20395;-80
2022/01/28 01:21:22;;;;;;;25.48;2.38;;;5.00;99.90;;;;;;5047494;28;20044;-81
2022/01/28 01:23:29;;;;;;;23.05;2.53;;;6.50;99.90;;;;;;5044544;28;20055;-80
2022/01/28 01:28:37;;;;;;;15.48;2.25;;;4.90;99.90;;;;;;5030626;28;20148;-80
2022/01/28 01:31:15;;;;;;;13.45;2.53;;;4.90;99.90;;;;;;5046722;28;20076;-80
2022/01/28 01:33:51;;;;;;;16.50;2.45;;;4.90;99.90;;;;;;5046499;28;20091;-80
2022/01/28 01:36:16;;;;;;;20.98;2.38;;;5.00;99.90;;;;;;5047555;28;20036;-80
2022/01/28 01:38:43;;;;;;;22.52;2.60;;;5.10;99.90;;;;;;5046751;28;20390;-79
2022/01/28 01:41:15;;;;;;;14.25;1.83;;;5.00;99.90;;;;;;5047510;28;20044;-80
2022/01/28 01:54:14;;;;;;;21.42;2.67;;;5.00;99.90;;;;;;5047035;28;20472;-79
2022/01/28 01:56:40;;;;;;;12.93;2.10;;;5.00;99.90;;;;;;5028584;28;20049;-80
2022/01/28 01:59:08;;;;;;;14.38;2.20;;;6.30;99.90;;;;;;5046802;28;20084;-80
2022/01/28 02:01:34;;;;;;;12.80;2.67;;;5.10;99.90;;;;;;5045228;28;20128;-80
2022/01/28 02:04:00;;;;;;;20.83;1.95;;;5.10;99.90;;;;;;5028067;28;20094;-78
2022/01/28 02:06:25;;;;;;;19.88;1.90;;;5.20;99.90;;;;;;5045908;28;20033;-78
2022/01/28 02:08:51;;;;;;;18.35;2.35;;;5.20;99.90;;;;;;5044626;28;20072;-80
2022/01/28 02:11:17;;;;;;;15.65;1.92;;;5.30;99.90;;;;;;5046759;28;20504;-80
2022/01/28 02:13:49;;;;;;;14.55;2.33;;;6.70;99.90;;;;;;5045907;28;20444;-80
2022/01/28 02:16:16;;;;;;;17.17;3.75;;;5.40;99.90;;;;;;5044657;28;20053;-80
2022/01/28 02:18:41;;;;;;;19.23;1.63;;;5.40;99.90;;;;;;5044769;28;20053;-80
2022/01/28 02:21:10;;;;;;;16.40;2.42;;;5.50;99.90;;;;;;5045924;28;20045;-80
2022/01/28 02:23:37;;;;;;;21.48;2.75;;;5.50;99.90;;;;;;5012351;28;20045;-80
2022/01/28 02:26:05;;;;;;;22.83;2.65;;;5.50;99.90;;;;;;5028137;28;20056;-80
2022/01/28 02:28:32;;;;;;;20.73;2.67;;;5.80;99.90;;;;;;5044493;28;20063;-80
2022/01/28 02:31:00;;;;;;;19.92;2.95;;;5.60;99.90;;;;;;5044054;28;20138;-80
2022/01/28 02:33:26;;;;;;;20.98;3.47;;;5.60;99.90;;;;;;5046080;28;20486;-79
2022/01/28 02:35:52;;;;;;;34.90;3.03;;;5.60;99.90;;;;;;5046216;28;20167;-79
2022/01/28 02:38:21;;;;;;;24.67;2.90;;;5.50;99.90;;;;;;5045773;28;20044;-79
2022/01/28 02:40:57;;;;;;;13.38;1.98;;;5.50;99.90;;;;;;5045349;28;20033;-79
2022/01/28 02:43:31;;;;;;;24.92;3.15;;;5.90;99.90;;;;;;5045653;28;20106;-79
2022/01/28 02:46:05;;;;;;;24.63;3.17;;;5.40;99.90;;;;;;5028917;28;20418;-79
2022/01/28 02:48:32;;;;;;;26.17;3.35;;;5.40;99.90;;;;;;5045604;28;20540;-79
2022/01/28 02:53:28;;;;;;;23.98;2.75;;;5.30;99.90;;;;;;5046067;28;20136;-79
2022/01/28 02:56:02;;;;;;;20.15;2.83;;;5.30;99.90;;;;;;5044004;28;20342;-79
2022/01/28 02:58:28;;;;;;;15.35;2.60;;;5.30;99.90;;;;;;5045119;28;20049;-79
2022/01/28 03:00:57;;;;;;;17.85;2.33;;;6.00;99.90;;;;;;5043110;28;20458;-79
2022/01/28 03:03:24;;;;;;;19.58;3.35;;;5.40;99.90;;;;;;5027350;28;20456;-79
2022/01/28 03:05:51;;;;;;;28.10;2.97;;;6.90;99.90;;;;;;5044174;28;20064;-79
2022/01/28 03:08:18;;;;;;;21.75;2.97;;;6.30;99.90;;;;;;5045218;28;20099;-79
2022/01/28 03:11:41;;;;;;;19.08;2.33;;;5.40;99.90;;;;;;5046013;28;20049;-79
2022/01/28 03:16:19;;;;;;;27.67;3.05;;;5.40;99.90;;;;;;5045391;28;20406;-79
2022/01/28 03:21:22;;;;;;;14.18;2.42;;;5.50;99.90;;;;;;5043200;28;20103;-79
2022/01/28 03:23:48;;;;;;;11.75;1.92;;;5.50;99.90;;;;;;5044464;28;20147;-79
2022/01/28 03:26:15;;;;;;;17.08;2.38;;;5.50;99.90;;;;;;5044764;28;20581;-79
2022/01/28 03:28:41;;;;;;;13.13;2.20;;;5.50;99.90;;;;;;5044686;28;20059;-79
2022/01/28 03:31:07;;;;;;;13.35;2.50;;;5.50;99.90;;;;;;5043529;28;20095;-79
2022/01/28 03:33:34;;;;;;;18.10;2.85;;;6.20;99.90;;;;;;5044642;28;20048;-79
2022/01/28 03:36:03;;;;;;;12.48;1.65;;;5.50;99.90;;;;;;5045593;28;20045;-79
2022/01/28 03:38:29;;;;;;;13.38;1.95;;;5.50;99.90;;;;;;5042749;28;20041;-79
2022/01/28 03:40:56;;;;;;;14.75;2.22;;;5.80;99.90;;;;;;5045215;28;20055;-78
2022/01/28 03:43:22;;;;;;;19.50;2.70;;;5.70;99.90;;;;;;5043214;28;20122;-78
2022/01/28 03:45:49;;;;;;;17.10;2.20;;;5.50;99.90;;;;;;5044547;28;20053;-78
2022/01/28 03:48:14;;;;;;;17.65;2.80;;;5.50;99.90;;;;;;5044900;28;20113;-79
2022/01/28 03:50:40;;;;;;;11.95;2.47;;;5.50;99.90;;;;;;5044879;28;20409;-79
2022/01/28 03:53:08;;;;;;;21.13;2.85;;;5.50;99.90;;;;;;5044807;28;20076;-79
2022/01/28 03:55:34;;;;;;;16.27;2.15;;;6.90;99.90;;;;;;5044285;28;20048;-79
2022/01/28 03:58:00;;;;;;;16.23;2.90;;;5.60;99.90;;;;;;5043794;28;20041;-78
2022/01/28 04:00:29;;;;;;;18.48;3.45;;;5.60;99.90;;;;;;5042839;28;20045;-79
2022/01/28 04:03:06;;;;;;;18.20;2.20;;;5.80;99.90;;;;;;5044161;28;20076;-78
2022/01/28 04:13:46;;;;;;;19.58;3.03;;;5.60;99.90;;;;;;5048641;28;20059;-79
2022/01/28 04:16:32;;;;;;;23.13;2.83;;;5.60;99.90;;;;;;5048341;28;20060;-78
2022/01/28 04:19:01;;;;;;;20.73;2.08;;;5.60;99.90;;;;;;5049195;28;20060;-78
2022/01/28 04:21:29;;;;;;;22.83;2.05;;;5.60;99.90;;;;;;5046943;28;20037;-78
2022/01/28 04:23:55;;;;;;;21.92;2.28;;;5.60;99.90;;;;;;5048695;28;20041;-78
2022/01/28 04:26:20;;;;;;;10.38;1.80;;;5.50;99.90;;;;;;5048187;28;20117;-78
2022/01/28 04:28:46;;;;;;;13.73;1.80;;;5.60;99.90;;;;;;5048006;28;20049;-78
2022/01/28 04:31:12;;;;;;;16.77;2.38;;;5.80;99.90;;;;;;5047820;28;20033;-78
2022/01/28 04:33:38;;;;;;;19.45;2.53;;;6.00;99.90;;;;;;5047440;28;20084;-78
2022/01/28 04:36:06;;;;;;;25.73;2.72;;;5.60;99.90;;;;;;5047433;28;20134;-78
2022/01/28 04:43:30;;;;;;;12.40;2.38;;;5.60;99.90;;;;;;5046590;28;20048;-78
2022/01/28 04:46:13;;;;;;;;;;;5.60;99.90;;;;;;5048409;28;20410;-78
2022/01/28 04:48:48;;;;;;;19.02;2.40;;;4.70;99.90;;;;;;5048678;28;19963;-78
2022/01/28 04:53:56;;;;;;;15.52;2.47;;;6.80;99.90;;;;;;5047536;28;20122;-79
2022/01/28 05:07:09;;;;;;;32.85;3.03;;;5.50;99.90;;;;;;5047724;28;20048;-79
2022/01/28 05:28:16;;;;;;;19.83;2.97;;;5.00;99.90;;;;;;5046760;28;20053;-79
2022/01/28 05:30:42;;;;;;;22.75;2.33;;;5.00;99.90;;;;;;5047183;28;20083;-79
2022/01/28 05:33:07;;;;;;;22.02;2.50;;;5.00;99.90;;;;;;5047274;28;20429;-78
2022/01/28 05:35:33;;;;;;;18.88;3.75;;;5.00;99.90;;;;;;5047473;28;20406;-79
2022/01/28 05:37:59;;;;;;;21.55;2.42;;;6.60;99.90;;;;;;5028387;28;20091;-78
2022/01/28 05:40:24;;;;;;;23.90;2.70;;;5.10;99.90;;;;;;5046331;28;20045;-79
2022/01/28 05:42:51;;;;;;;18.90;2.17;;;5.20;99.90;;;;;;5046622;28;20114;-79
2022/01/28 05:45:16;;;;;;;14.23;1.90;;;5.10;99.90;;;;;;5045669;28;20124;-79
2022/01/28 05:47:42;;;;;;;19.58;2.15;;;5.10;99.90;;;;;;5046373;28;20148;-79
2022/01/28 05:50:17;;;;;;;26.95;3.03;;;6.00;99.90;;;;;;5046715;28;20381;-79
2022/01/28 05:52:43;;;;;;;13.82;2.05;;;5.20;99.90;;;;;;5047484;28;20058;-78
2022/01/28 05:55:09;;;;;;;19.02;2.10;;;6.10;99.90;;;;;;5046018;28;20037;-79
2022/01/28 05:57:35;;;;;;;14.15;1.70;;;5.20;99.90;;;;;;5012051;28;20099;-79
2022/01/28 06:00:01;;;;;;;15.80;1.77;;;5.20;99.90;;;;;;5046199;28;20045;-79
2022/01/28 06:02:26;;;;;;;19.63;1.95;;;5.30;99.90;;;;;;5045278;28;20450;-79
2022/01/28 06:04:52;;;;;;;10.95;2.13;;;5.30;99.90;;;;;;5045097;28;20080;-79
2022/01/28 06:07:20;;;;;;;11.52;1.95;;;5.30;99.90;;;;;;5045401;28;20099;-79
2022/01/28 06:09:46;;;;;;;19.20;2.83;;;5.40;99.90;;;;;;5045335;28;20044;-79
2022/01/28 06:12:12;;;;;;;19.08;2.30;;;6.70;99.90;;;;;;5028110;28;20063;-79
2022/01/28 06:14:38;;;;;;;16.90;2.10;;;5.40;99.90;;;;;;5047189;28;20124;-79
2022/01/28 06:17:04;;;;;;;20.63;2.08;;;5.40;99.90;;;;;;5046232;28;20033;-79
2022/01/28 06:19:29;;;;;;;20.65;3.05;;;6.10;99.90;;;;;;5045218;28;20509;-79
2022/01/28 06:21:55;;;;;;;26.77;3.28;;;5.40;99.90;;;;;;5046194;28;20045;-79
2022/01/28 06:24:21;;;;;;;23.98;2.90;;;6.80;99.90;;;;;;5045001;28;20083;-79
2022/01/28 06:26:47;;;;;;;18.08;2.00;;;5.40;99.90;;;;;;5046374;28;20045;-79
2022/01/28 06:29:13;;;;;;;22.85;2.75;;;5.30;99.90;;;;;;5045383;28;20045;-79
2022/01/28 06:31:39;;;;;;;30.92;3.40;;;5.30;99.90;;;;;;5027851;28;20175;-79
2022/01/28 06:34:05;;;;;;;18.25;2.67;;;5.30;99.90;;;;;;5045614;28;20064;-79
2022/01/28 06:36:30;;;;;;;16.42;2.97;;;6.10;99.90;;;;;;5044530;28;20045;-78
2022/01/28 06:38:56;;;;;;;27.70;2.40;;;5.20;99.90;;;;;;5044202;28;20044;-79
2022/01/28 06:41:22;;;;;;;24.20;3.75;;;5.20;99.90;;;;;;5044068;28;20057;-80
2022/01/28 06:43:48;;;;;;;26.15;2.38;;;6.70;99.90;;;;;;5044175;28;20041;-80
2022/01/28 06:46:14;;;;;;;20.83;2.40;;;5.10;99.90;;;;;;5027306;28;20044;-79
2022/01/28 06:48:40;;;;;;;14.68;3.22;;;5.30;99.90;;;;;;5028060;28;20470;-80
2022/01/28 06:51:05;;;;;;;16.48;2.72;;;4.90;99.90;;;;;;5027000;28;20128;-80
2022/01/28 06:53:31;;;;;;;19.38;2.65;;;5.60;99.90;;;;;;5044583;28;20049;-78
2022/01/28 06:55:57;;;;;;;20.23;2.78;;;5.00;99.90;;;;;;5044218;28;20125;-78
2022/01/28 06:58:23;;;;;;;33.60;3.13;;;5.00;99.90;;;;;;5045932;28;20095;-79
2022/01/28 07:00:49;;;;;;;25.70;2.45;;;4.90;99.90;;;;;;5045966;28;20219;-78
2022/01/28 07:03:14;;;;;;;30.55;3.03;;;4.90;99.90;;;;;;5043879;28;20387;-79
2022/01/28 07:05:41;;;;;;;14.73;3.17;;;4.80;99.90;;;;;;5045621;28;20563;-78
2022/01/28 07:08:08;;;;;;;23.90;2.28;;;4.80;99.90;;;;;;5044355;28;20106;-79
2022/01/28 07:10:34;;;;;;;23.95;2.58;;;4.80;99.90;;;;;;5045979;28;20044;-79
2022/01/28 07:12:59;;;;;;;20.70;2.42;;;4.80;99.90;;;;;;5043956;28;20053;-78
2022/01/28 07:15:26;;;;;;;21.58;2.90;;;4.80;99.90;;;;;;5043942;28;20552;-79
2022/01/28 07:17:54;;;;;;;17.75;2.17;;;4.80;99.90;;;;;;5043338;28;20486;-79
2022/01/28 07:20:20;;;;;;;16.08;2.70;;;6.30;99.90;;;;;;5026140;28;20076;-79
2022/01/28 07:22:46;;;;;;;16.33;2.47;;;4.80;99.90;;;;;;5043532;28;20049;-78
2022/01/28 07:25:12;;;;;;;24.75;2.50;;;4.80;99.90;;;;;;5026740;28;20402;-78
2022/01/28 07:27:38;;;;;;;14.52;1.95;;;4.80;99.90;;;;;;5045295;28;20048;-79
2022/01/28 07:30:06;;;;;;;22.55;2.35;;;4.80;99.90;;;;;;5044887;28;20139;-79
2022/01/28 07:32:32;;;;;;;19.50;2.70;;;4.80;99.90;;;;;;5043444;28;20073;-78
2022/01/28 07:34:58;;;;;;;15.68;2.13;;;4.80;99.90;;;;;;5027027;28;20091;-79
2022/01/28 07:37:24;;;;;;;22.50;2.55;;;4.80;99.90;;;;;;4994259;28;20102;-78
2022/01/28 07:39:50;;;;;;;19.42;3.00;;;6.10;99.90;;;;;;5044159;28;20044;-78
2022/01/28 07:42:17;;;;;;;20.52;2.55;;;4.90;99.90;;;;;;5043864;28;20049;-79
2022/01/28 07:44:43;;;;;;;18.08;2.58;;;4.90;99.90;;;;;;5043549;28;20045;-79
2022/01/28 07:47:09;;;;;;;18.92;1.95;;;5.20;99.90;;;;;;5042710;28;20057;-79
2022/01/28 07:49:35;;;;;;;17.45;2.28;;;5.00;99.90;;;;;;5043471;28;20524;-79
2022/01/28 07:52:00;;;;;;;29.15;2.75;;;6.30;99.90;;;;;;5043256;28;20127;-79
2022/01/28 07:54:26;;;;;;;24.90;2.65;;;5.00;99.90;;;;;;5042987;28;20162;-79
2022/01/28 07:56:53;;;;;;;12.05;3.50;;;4.90;99.90;;;;;;5043808;28;20482;-78
2022/01/28 07:59:20;;;;;;;27.88;3.38;;;4.90;99.90;;;;;;5026321;28;20056;-79
2022/01/28 08:01:46;;;;;;;21.77;3.00;;;4.90;99.90;;;;;;5027161;28;20056;-80
2022/01/28 08:04:12;;;;;;;19.25;2.20;;;5.60;99.90;;;;;;5044339;28;20486;-79
2022/01/28 08:06:38;;;;;;;16.05;3.13;;;4.90;99.90;;;;;;5044223;28;20048;-79
2022/01/28 08:09:04;;;;;;;23.75;2.83;;;4.90;99.90;;;;;;5044399;28;20048;-79
2022/01/28 08:11:30;;;;;;;22.40;3.03;;;4.90;99.90;;;;;;4994366;28;20119;-80
2022/01/28 08:13:56;;;;;;;20.45;2.85;;;4.80;99.90;;;;;;5044709;28;20406;-79
2022/01/28 08:16:22;;;;;;;24.65;2.55;;;4.80;99.90;;;;;;5044019;28;20124;-80
2022/01/28 08:18:48;;;;;;;13.88;2.45;;;4.90;99.90;;;;;;5044487;28;20542;-78
2022/01/28 08:21:16;;;;;;;28.67;4.95;;;5.70;99.90;;;;;;5042358;28;20037;-79
2022/01/28 08:23:42;;;;;;;21.92;2.17;;;4.90;99.90;;;;;;5042801;28;20041;-80
2022/01/28 08:26:08;;;;;;;18.50;2.38;;;4.90;99.90;;;;;;5042477;28;20048;-80
2022/01/28 08:28:34;;;;;;;18.95;2.60;;;4.90;99.90;;;;;;5024730;28;20060;-81
2022/01/28 08:31:00;;;;;;;19.52;2.60;;;5.80;99.90;;;;;;5043878;28;20037;-79
2022/01/28 08:33:26;;;;;;;15.55;3.38;;;5.00;99.90;;;;;;5043606;28;20045;-80
2022/01/28 08:35:53;;;;;;;15.52;2.17;;;5.20;99.90;;;;;;5044473;28;20041;-80
2022/01/28 08:38:30;;;;;;;18.85;2.53;;;4.90;99.90;;;;;;5043106;28;20045;-80
2022/01/28 08:40:58;;;;;;;23.42;2.80;;;6.20;99.90;;;;;;5044051;28;20504;-80
2022/01/28 08:43:25;;;;;;;22.85;2.72;;;6.00;99.90;;;;;;5026352;28;20045;-80
2022/01/28 08:45:51;;;;;;;23.75;2.95;;;4.90;99.90;;;;;;5043472;28;20456;-80
2022/01/28 08:48:16;;;;;;;23.63;3.80;;;4.80;99.90;;;;;;5044240;28;20053;-80
2022/01/28 08:50:42;;;;;;;23.42;2.55;;;4.90;99.90;;;;;;5041132;28;20045;-79
2022/01/28 08:53:10;;;;;;;14.45;2.50;;;4.90;99.90;;;;;;5043776;28;20041;-79
2022/01/28 08:55:38;;;;;;;14.00;2.92;;;5.00;99.90;;;;;;5044836;28;20041;-80
2022/01/28 08:58:07;;;;;;;16.30;2.58;;;5.10;99.90;;;;;;5047224;28;20037;-80
2022/01/28 09:00:33;;;;;;;28.83;3.00;;;5.10;99.90;;;;;;5046325;28;20594;-78
2022/01/28 09:02:59;;;;;;;12.52;2.50;;;5.10;99.90;;;;;;5029623;28;20045;-79
2022/01/28 09:05:25;;;;;;;27.00;3.10;;;5.10;99.90;;;;;;5048539;28;20047;-78
2022/01/28 09:07:51;;;;;;;17.10;3.03;;;4.40;99.90;;;;;;5047081;28;20486;-78
2022/01/28 09:10:18;;;;;;;25.33;2.70;;;5.30;99.90;;;;;;5048259;28;20469;-78
2022/01/28 09:13:10;;;;;;;25.23;2.17;;;5.90;99.90;;;;;;5029435;28;20093;-79
2022/01/28 09:15:39;;;;;;;21.77;2.80;;;5.70;99.90;;;;;;5045068;28;20474;-79
2022/01/28 09:18:05;;;;;;;37.80;2.83;;;5.60;99.90;;;;;;5046758;28;20037;-79
2022/01/28 09:20:34;;;;;;;33.10;4.10;;;5.70;99.90;;;;;;5046371;28;20593;-79
2022/01/28 09:23:01;;;;;;;16.63;2.17;;;6.80;99.90;;;;;;5047823;28;20091;-79
2022/01/28 09:25:27;;;;;;;12.02;2.42;;;6.00;99.90;;;;;;5045527;28;20087;-78
2022/01/28 09:27:54;;;;;;;19.40;2.40;;;6.20;99.90;;;;;;5047630;28;20048;-77
2022/01/28 09:30:19;;;;;;;25.35;2.63;;;6.30;99.90;;;;;;5047382;28;20131;-79
2022/01/28 09:32:45;;;;;;;27.48;2.75;;;7.70;99.90;;;;;;5046456;28;20107;-79
2022/01/28 09:35:11;;;;;;;24.05;4.15;;;6.60;99.90;;;;;;5047968;28;20045;-78
2022/01/28 09:37:37;;;;;;;17.10;3.00;;;7.20;99.90;;;;;;5045165;28;20052;-79
2022/01/28 09:40:05;;;;;;;21.25;3.17;;;6.80;99.90;;;;;;5046250;28;20505;-78
2022/01/28 09:42:34;;;;;;;18.42;2.97;;;6.90;99.90;;;;;;5046235;28;20056;-78
2022/01/28 09:45:03;;;;;;;13.63;3.20;;;7.00;99.90;;;;;;5047321;28;20041;-79
2022/01/28 09:47:31;;;;;;;17.95;2.55;;;7.70;99.90;;;;;;5045376;28;20049;-78
2022/01/28 09:49:57;;;;;;;14.65;2.35;;;7.90;99.90;;;;;;5046342;28;20134;-77
2022/01/28 09:52:22;;;;;;;31.88;3.22;;;7.20;99.90;;;;;;5045557;28;20137;-78
2022/01/28 09:54:48;;;;;;;25.75;3.72;;;8.50;99.90;;;;;;5028261;28;20048;-81
2022/01/28 09:57:19;;;;;;;16.83;3.72;;;7.20;99.90;;;;;;5045685;28;20110;-79
2022/01/28 09:59:45;;;;;;;13.85;2.20;;;7.30;99.90;;;;;;5044437;28;20049;-79
2022/01/28 10:02:12;;;;;;;23.73;2.88;;;7.70;99.90;;;;;;5046574;28;20049;-79
2022/01/28 10:04:38;;;;;;;20.40;2.63;;;7.30;99.90;;;;;;5046139;28;20099;-78
2022/01/28 10:07:16;;;;;;;20.33;2.42;;;7.80;99.90;;;;;;5042891;28;20107;-78
2022/01/28 10:09:55;;;;;;;22.52;2.50;;;7.30;99.90;;;;;;5046541;28;20037;-78
2022/01/28 10:12:30;;;;;;;18.65;2.78;;;7.40;99.90;;;;;;5045646;28;20051;-78
2022/01/28 10:15:19;;;;;;;16.15;2.30;;;7.30;99.90;;;;;;5046448;28;20049;-78
2022/01/28 10:17:55;;;;;;;22.85;2.45;;;7.30;99.90;;;;;;5045051;28;20041;-80
2022/01/28 10:20:22;;;;;;;17.08;2.13;;;7.30;99.90;;;;;;5044893;28;20112;-80
2022/01/28 10:22:52;;;;;;;16.10;1.98;;;7.30;99.90;;;;;;5046151;28;20048;-80
2022/01/28 10:25:23;;;;;;;13.73;2.50;;;7.30;99.90;;;;;;5045322;28;20045;-79
2022/01/28 10:27:58;;;;;;;12.20;2.08;;;7.90;99.90;;;;;;5045784;28;20102;-79
2022/01/28 10:30:24;;;;;;;18.58;2.75;;;7.30;99.90;;;;;;5046423;28;20490;-79
2022/01/28 10:33:16;;;;;;;27.55;3.53;;;7.40;99.90;;;;;;5045411;28;20040;-79
2022/01/28 10:35:59;;;;;;;19.15;2.67;;;7.40;99.90;;;;;;5046558;28;20072;-80
2022/01/28 10:38:34;;;;;;;15.00;2.40;;;7.50;99.90;;;;;;5044484;28;20094;-78
2022/01/28 10:41:14;;;;;;;21.42;3.33;;;7.50;99.90;;;;;;5045895;28;20080;-78
2022/01/28 10:43:48;;;;;;;17.23;2.67;;;7.20;99.90;;;;;;5046259;28;20040;-79
2022/01/28 10:46:20;;;;;;;12.00;1.85;;;7.50;99.90;;;;;;5044562;28;20088;-80
2022/01/28 10:48:51;;;;;;;21.65;2.72;;;7.90;99.90;;;;;;5044399;28;20045;-80
2022/01/28 10:51:22;;;;;;;22.90;2.58;;;8.10;99.90;;;;;;5044052;28;20126;-78
2022/01/28 10:54:16;;;;;;;26.30;3.05;;;7.50;99.90;;;;;;5045601;28;20047;-78
2022/01/28 10:56:56;;;;;;;25.50;2.42;;;7.50;99.90;;;;;;5045006;28;20114;-79
2022/01/28 10:59:24;;;;;;;17.60;2.45;;;7.50;99.90;;;;;;5044900;28;20045;-79
2022/01/28 11:01:51;;;;;;;23.38;2.58;;;6.10;99.90;;;;;;5044462;28;20077;-76
2022/01/28 11:04:18;;;;;;;13.40;2.15;;;7.50;99.90;;;;;;5043771;28;20045;-76
2022/01/28 11:06:45;;;;;;;18.70;2.10;;;7.60;99.90;;;;;;5044903;28;20419;-78
2022/01/28 11:09:12;;;;;;;18.73;2.22;;;8.80;99.90;;;;;;5045606;28;20041;-78
2022/01/28 11:11:39;;;;;;;14.85;2.38;;;7.70;99.90;;;;;;5044126;28;20045;-78
2022/01/28 11:14:06;;;;;;;13.43;2.22;;;9.00;99.90;;;;;;5044246;28;20052;-77
2022/01/28 11:16:32;;;;;;;15.20;2.63;;;7.90;99.90;;;;;;5043350;28;20236;-77
2022/01/28 11:18:59;;;;;;;13.63;1.75;;;8.40;99.90;;;;;;5044979;28;20044;-78
2022/01/28 11:21:46;;;;;;;8.93;1.65;;;9.20;99.90;;;;;;5043552;28;20053;-79
2022/01/28 11:24:42;;;;;;;12.48;2.30;;;7.90;99.90;;;;;;5043370;28;20059;-79
2022/01/28 11:27:18;;;;;;;20.88;2.08;;;7.90;99.90;;;;;;5044393;28;20041;-78
2022/01/28 11:29:43;;;;;;;13.40;1.60;;;7.80;99.90;;;;;;5043609;28;20057;-78
2022/01/28 11:32:15;;;;;;;20.70;2.38;;;8.70;99.90;;;;;;5044844;28;20074;-78
2022/01/28 11:35:06;;;;;;;17.35;1.90;;;7.70;99.90;;;;;;5027798;28;20041;-77
2022/01/28 11:37:35;;;;;;;17.08;2.08;;;7.60;99.90;;;;;;5044289;28;20049;-77
2022/01/28 11:40:10;;;;;;;15.10;2.30;;;7.50;99.90;;;;;;5045162;28;20044;-78
2022/01/28 11:42:36;;;;;;;17.73;2.65;;;7.50;99.90;;;;;;5044554;28;20045;-78
2022/01/28 11:45:05;;;;;;;16.15;2.17;;;7.90;99.90;;;;;;5044526;28;20133;-78
2022/01/28 11:47:56;;;;;;;20.10;2.13;;;7.60;99.90;;;;;;5044601;28;20140;-79
2022/01/28 11:50:23;;;;;;;13.93;2.13;;;7.80;99.90;;;;;;5040638;28;20120;-78
2022/01/28 11:52:55;;;;;;;13.52;2.20;;;8.00;99.90;;;;;;5044994;28;20045;-78
2022/01/28 11:55:21;;;;;;;18.00;2.28;;;8.10;99.90;;;;;;5043009;28;20132;-78
2022/01/28 11:58:07;;;;;;;13.85;2.55;;;8.20;99.90;;;;;;5044336;28;20167;-78
2022/01/28 12:00:39;;;;;;;16.90;2.13;;;8.20;99.90;;;;;;5043900;28;20041;-78
2022/01/28 12:03:22;;;;;;;12.95;2.33;;;8.10;99.90;;;;;;5044022;28;20599;-78
2022/01/28 12:05:48;;;;;;;21.13;2.78;;;8.10;99.90;;;;;;5044819;28;20490;-80
2022/01/28 12:08:17;;;;;;;20.38;2.60;;;8.10;99.90;;;;;;5042924;28;20056;-79
2022/01/28 12:10:45;;;;;;;15.20;2.28;;;8.60;99.90;;;;;;5044197;28;20134;-79
2022/01/28 12:13:17;;;;;;;20.85;2.33;;;8.10;99.90;;;;;;5045056;28;20037;-77
2022/01/28 12:16:00;;;;;;;19.35;2.30;;;8.00;99.90;;;;;;5043371;28;20116;-77
2022/01/28 12:18:55;;;;;;;15.50;2.33;;;8.00;99.90;;;;;;5044728;28;20056;-78
2022/01/28 12:21:27;;;;;;;18.60;2.78;;;8.10;99.90;;;;;;5044375;28;20476;-80
2022/01/28 12:24:12;;;;;;;12.52;1.65;;;8.10;99.90;;;;;;5025810;28;20063;-80
2022/01/28 12:27:06;;;;;;;21.83;2.40;;;8.10;99.90;;;;;;5042955;28;20090;-79
2022/01/28 12:29:35;;;;;;;19.52;2.00;;;8.10;99.90;;;;;;5043989;28;20052;-79
2022/01/28 12:32:03;;;;;;;16.33;2.22;;;8.00;99.90;;;;;;5048029;28;20595;-79
2022/01/28 12:34:29;;;;;;;17.33;1.45;;;7.90;99.90;;;;;;5048353;28;20076;-78
2022/01/28 12:36:57;;;;;;;22.02;2.58;;;8.00;99.90;;;;;;5046992;28;20076;-79
2022/01/28 12:44:51;;;;;;;23.33;1.75;;;8.10;99.90;;;;;;5045907;28;20045;-78
2022/01/28 12:47:17;;;;;;;11.18;1.35;;;8.10;99.90;;;;;;5027051;28;20308;-79
2022/01/28 12:49:43;;;;;;;21.80;2.08;;;8.10;99.90;;;;;;5026330;28;20700;-79
2022/01/28 12:52:10;;;;;;;15.48;2.35;;;8.40;99.90;;;;;;5045197;28;20097;-79
2022/01/28 12:54:42;;;;;;;21.08;2.72;;;8.40;99.90;;;;;;5028688;28;20129;-78
2022/01/28 12:57:13;;;;;;;14.60;1.60;;;9.00;99.90;;;;;;5047609;28;20045;-79
2022/01/28 12:59:40;;;;;;;13.73;1.75;;;8.30;99.90;;;;;;5029182;28;20131;-79
2022/01/28 13:02:07;;;;;;;15.38;2.38;;;8.40;99.90;;;;;;5045749;28;20045;-79
2022/01/28 13:05:12;;;;;;;14.15;2.30;;;8.50;99.90;;;;;;5046932;28;20113;-79
2022/01/28 13:10:32;;;;;;;19.42;2.30;;;8.40;99.90;;;;;;5047301;28;20140;-78
2022/01/28 13:13:03;;;;;;;18.73;2.00;;;8.90;99.90;;;;;;5047947;28;20112;-80
2022/01/28 13:15:29;;;;;;;12.68;1.40;;;8.50;99.90;;;;;;5045560;28;20426;-80
2022/01/28 13:17:58;;;;;;;20.30;2.92;;;8.50;99.90;;;;;;5046302;28;20062;-77
2022/01/28 13:20:32;;;;;;;18.23;3.42;;;9.10;99.90;;;;;;5046289;28;20048;-79
2022/01/28 13:22:58;;;;;;;12.55;2.47;;;8.40;99.90;;;;;;5047829;28;20266;-80
2022/01/28 13:25:26;;;;;;;12.52;1.75;;;8.40;99.90;;;;;;5046664;28;20231;-80
2022/01/28 13:28:03;;;;;;;18.38;2.00;;;9.60;99.90;;;;;;5047375;28;20119;-79
2022/01/28 13:30:34;;;;;;;15.07;1.77;;;8.80;99.90;;;;;;5048293;28;20464;-80
2022/01/28 13:33:05;;;;;;;13.05;1.85;;;9.20;99.90;;;;;;5047010;28;20043;-79
2022/01/28 13:35:33;;;;;;;12.95;1.52;;;9.80;99.90;;;;;;5048164;28;20049;-80
2022/01/28 13:38:05;;;;;;;14.23;1.58;;;8.40;99.90;;;;;;5046649;28;20187;-80
2022/01/28 13:40:33;;;;;;;13.05;2.22;;;8.50;99.90;;;;;;5047843;28;20048;-79
2022/01/28 13:43:17;;;;;;;9.35;2.30;;;8.40;99.90;;;;;;5048613;28;20048;-80
2022/01/28 13:45:51;;;;;;;19.83;1.58;;;8.30;99.30;;;;;;5047189;28;20462;-79
2022/01/28 13:48:39;;;;;;;16.02;1.65;;;8.20;99.90;;;;;;5046947;28;20053;-80
2022/01/28 13:51:14;;;;;;;16.40;1.73;;;8.10;99.90;;;;;;5046552;28;20072;-80
2022/01/28 13:56:42;;;;;;;20.60;2.20;;;8.20;99.90;;;;;;5045695;28;20114;-82
2022/01/28 13:59:17;;;;;;;15.88;2.20;;;8.50;99.90;;;;;;5045205;28;20080;-81
2022/01/28 14:01:48;;;;;;;10.10;1.80;;;8.20;99.90;;;;;;5045318;28;20052;-81
2022/01/28 14:04:23;;;;;;;13.02;2.40;;;8.20;99.90;;;;;;5045237;28;20140;-81
2022/01/28 14:06:49;;;;;;;18.80;2.17;;;8.40;99.90;;;;;;5044708;28;20467;-81
2022/01/28 14:09:22;;;;;;;8.50;1.52;;;8.10;99.90;;;;;;5045116;28;20041;-82
2022/01/28 14:11:52;;;;;;;22.58;2.60;;;8.10;99.90;;;;;;5044631;28;20041;-81
2022/01/28 14:14:24;;;;;;;19.50;2.08;;;9.40;99.90;;;;;;5028904;28;20522;-81
2022/01/28 14:16:53;;;;;;;10.75;1.27;;;8.10;99.90;;;;;;5045107;28;20045;-80
2022/01/28 14:19:19;;;;;;;15.48;1.73;;;8.10;99.90;;;;;;5028130;28;20045;-80
2022/01/28 14:21:46;;;;;;;14.10;1.83;;;7.90;99.90;;;;;;4996169;28;20045;-80
2022/01/28 14:24:18;;;;;;;15.88;2.08;;;7.90;99.90;;;;;;5044416;28;20053;-80
2022/01/28 14:26:55;;;;;;;18.98;1.90;;;7.80;99.90;;;;;;5028642;28;20047;-80
2022/01/28 14:29:24;;;;;;;12.68;2.10;;;7.80;99.90;;;;;;5027478;28;20051;-81
2022/01/28 14:31:52;;;;;;;21.63;2.78;;;7.80;99.90;;;;;;5028100;28;20048;-79
2022/01/28 14:34:19;;;;;;;18.80;2.80;;;7.80;99.90;;;;;;5028761;28;20076;-79
2022/01/28 14:36:45;;;;;;;26.30;4.70;;;7.80;99.90;;;;;;5010809;28;20049;-79
2022/01/28 14:39:11;;;;;;;14.02;3.38;;;7.80;99.90;;;;;;5046092;28;20083;-79
2022/01/28 14:41:37;;;;;;;21.17;2.72;;;7.70;99.90;;;;;;5044853;28;20049;-79
2022/01/28 14:44:04;;;;;;;8.98;2.22;;;8.90;99.90;;;;;;5045759;28;20094;-79